sensor_id;sensor_type;location;lat;lon;timestamp;pressure;altitude;pressure_sealevel;temperature;humidity
13476;BME280;6810;63.824;20.288;2022-10-16T09:17:17;100018.94;;;6.61;82.25
13476;BME280;6810;63.824;20.288;2022-10-16T09:19:55;100017.25;;;6.60;82.63
13476;BME280;6810;63.824;20.288;2022-10-16T09:22:27;100016.75;;;6.69;82.87
13476;BME280;6810;63.824;20.288;2022-10-16T09:25:20;99949.56;;;6.39;82.80
13476;BME280;6810;63.824;20.288;2022-10-16T09:28:08;100003.88;;;6.78;83.03
13476;BME280;6810;63.824;20.288;2022-10-16T09:30:56;99975.94;;;6.73;83.55
13476;BME280;6810;63.824;20.288;2022-10-16T09:33:43;99980.53;;;6.85;83.59
13476;BME280;6810;63.824;20.288;2022-10-16T09:36:44;99982.28;;;6.86;83.44
13476;BME280;6810;63.824;20.288;2022-10-16T09:39:46;99989.53;;;6.98;83.63
13476;BME280;6810;63.824;20.288;2022-10-16T09:42:35;99985.59;;;7.05;83.54
13476;BME280;6810;63.824;20.288;2022-10-16T09:45:23;99957.31;;;6.90;83.76
13476;BME280;6810;63.824;20.288;2022-10-16T09:48:12;99976.97;;;7.17;84.12
13476;BME280;6810;63.824;20.288;2022-10-16T09:51:02;99968.66;;;7.23;83.99
13476;BME280;6810;63.824;20.288;2022-10-16T09:53:58;99971.06;;;7.28;83.74
13476;BME280;6810;63.824;20.288;2022-10-16T09:56:45;99977.72;;;7.35;84.58
13476;BME280;6810;63.824;20.288;2022-10-16T09:59:33;99967.03;;;7.36;84.13
13476;BME280;6810;63.824;20.288;2022-10-16T10:05:39;99960.06;;;7.49;84.17
13476;BME280;6810;63.824;20.288;2022-10-16T10:08:28;99949.97;;;7.56;84.36
13476;BME280;6810;63.824;20.288;2022-10-16T10:11:15;99946.97;;;7.62;84.71
13476;BME280;6810;63.824;20.288;2022-10-16T10:14:08;99945.66;;;7.69;84.56
13476;BME280;6810;63.824;20.288;2022-10-16T10:17:23;99938.28;;;7.74;84.57
13476;BME280;6810;63.824;20.288;2022-10-16T10:20:26;99939.66;;;7.81;84.77
13476;BME280;6810;63.824;20.288;2022-10-16T10:23:25;99934.91;;;7.86;84.78
13476;BME280;6810;63.824;20.288;2022-10-16T10:26:23;99935.31;;;7.94;84.73
13476;BME280;6810;63.824;20.288;2022-10-16T10:29:28;99936.56;;;8.02;85.13
13476;BME280;6810;63.824;20.288;2022-10-16T10:32:32;99937.63;;;8.14;85.21
13476;BME280;6810;63.824;20.288;2022-10-16T10:38:23;99931.78;;;8.37;86.03
13476;BME280;6810;63.824;20.288;2022-10-16T10:47:29;99918.09;;;8.71;85.60
13476;BME280;6810;63.824;20.288;2022-10-16T10:50:26;99925.41;;;8.82;86.04
13476;BME280;6810;63.824;20.288;2022-10-16T10:53:24;99917.56;;;8.93;86.51
13476;BME280;6810;63.824;20.288;2022-10-16T11:07:48;99927.69;;;9.41;86.62
13476;BME280;6810;63.824;20.288;2022-10-16T11:10:47;99920.56;;;9.41;86.76
13476;BME280;6810;63.824;20.288;2022-10-16T11:16:44;99921.13;;;9.59;87.78
13476;BME280;6810;63.824;20.288;2022-10-16T11:20:12;99927.97;;;9.63;86.80
13476;BME280;6810;63.824;20.288;2022-10-16T11:23:27;99932.88;;;9.69;87.94
13476;BME280;6810;63.824;20.288;2022-10-16T11:26:26;99921.91;;;9.73;87.28
13476;BME280;6810;63.824;20.288;2022-10-16T11:29:23;99921.50;;;9.79;87.88
13476;BME280;6810;63.824;20.288;2022-10-16T11:32:20;99921.91;;;9.86;87.72
13476;BME280;6810;63.824;20.288;2022-10-16T11:35:18;99922.25;;;9.94;88.05
13476;BME280;6810;63.824;20.288;2022-10-16T11:41:28;99913.41;;;10.06;88.34
13476;BME280;6810;63.824;20.288;2022-10-16T11:56:05;99870.53;;;9.98;87.72
13476;BME280;6810;63.824;20.288;2022-10-16T12:08:17;99929.78;;;10.39;88.36
13476;BME280;6810;63.824;20.288;2022-10-16T12:17:26;99930.59;;;10.39;88.05
13476;BME280;6810;63.824;20.288;2022-10-16T12:20:30;99928.91;;;10.38;87.74
13476;BME280;6810;63.824;20.288;2022-10-16T12:23:20;99928.91;;;10.38;87.09
13476;BME280;6810;63.824;20.288;2022-10-16T12:26:07;99921.34;;;10.32;87.51
13476;BME280;6810;63.824;20.288;2022-10-16T12:28:55;99927.13;;;10.39;87.43
13476;BME280;6810;63.824;20.288;2022-10-16T12:31:46;99908.78;;;10.34;87.30
13476;BME280;6810;63.824;20.288;2022-10-16T12:34:42;99890.69;;;10.14;87.57
13476;BME280;6810;63.824;20.288;2022-10-16T12:37:35;99932.31;;;10.40;88.27
13476;BME280;6810;63.824;20.288;2022-10-16T12:40:28;99933.06;;;10.42;88.42
13476;BME280;6810;63.824;20.288;2022-10-16T12:46:21;99932.13;;;10.43;87.25
13476;BME280;6810;63.824;20.288;2022-10-16T12:52:01;99943.50;;;10.45;87.68
13476;BME280;6810;63.824;20.288;2022-10-16T12:54:48;99940.81;;;10.45;88.14
13476;BME280;6810;63.824;20.288;2022-10-16T12:58:13;99932.00;;;10.45;87.77
13476;BME280;6810;63.824;20.288;2022-10-16T13:01:29;99948.81;;;10.45;86.96
13476;BME280;6810;63.824;20.288;2022-10-16T13:08:00;99939.13;;;10.44;87.63
13476;BME280;6810;63.824;20.288;2022-10-16T13:17:09;99944.56;;;10.43;87.72
13476;BME280;6810;63.824;20.288;2022-10-16T13:20:18;99932.94;;;10.44;86.74
13476;BME280;6810;63.824;20.288;2022-10-16T13:23:16;99862.94;;;10.04;86.55
13476;BME280;6810;63.824;20.288;2022-10-16T13:28:59;99949.69;;;10.46;87.10
13476;BME280;6810;63.824;20.288;2022-10-16T13:31:46;99949.69;;;10.46;87.71
13476;BME280;6810;63.824;20.288;2022-10-16T13:34:43;99879.38;;;10.11;86.77
13476;BME280;6810;63.824;20.288;2022-10-16T13:37:31;99924.78;;;10.34;86.96
13476;BME280;6810;63.824;20.288;2022-10-16T13:40:21;99947.56;;;10.51;87.61
13476;BME280;6810;63.824;20.288;2022-10-16T13:43:08;99940.72;;;10.47;86.44
13476;BME280;6810;63.824;20.288;2022-10-16T13:46:04;99937.94;;;10.48;87.18
13476;BME280;6810;63.824;20.288;2022-10-16T13:49:20;99870.22;;;10.02;86.58
13476;BME280;6810;63.824;20.288;2022-10-16T13:52:17;99958.75;;;10.43;87.04
13476;BME280;6810;63.824;20.288;2022-10-16T13:55:16;99958.84;;;10.42;86.75
13476;BME280;6810;63.824;20.288;2022-10-16T13:58:10;99957.13;;;10.41;87.04
13476;BME280;6810;63.824;20.288;2022-10-16T14:01:03;99944.78;;;10.40;86.59
13476;BME280;6810;63.824;20.288;2022-10-16T14:04:05;99942.97;;;10.40;86.49
13476;BME280;6810;63.824;20.288;2022-10-16T14:06:53;99941.25;;;10.39;86.25
13476;BME280;6810;63.824;20.288;2022-10-16T14:09:50;99943.94;;;10.39;87.08
13476;BME280;6810;63.824;20.288;2022-10-16T14:12:37;99954.56;;;10.39;86.59
13476;BME280;6810;63.824;20.288;2022-10-16T14:15:24;99929.22;;;10.21;86.59
13476;BME280;6810;63.824;20.288;2022-10-16T14:18:18;99958.22;;;10.38;87.42
13476;BME280;6810;63.824;20.288;2022-10-16T14:21:12;99937.75;;;10.26;87.08
13476;BME280;6810;63.824;20.288;2022-10-16T14:24:14;99908.66;;;10.11;87.01
13476;BME280;6810;63.824;20.288;2022-10-16T14:27:32;99954.69;;;10.38;86.20
13476;BME280;6810;63.824;20.288;2022-10-16T14:30:21;99953.84;;;10.37;86.47
13476;BME280;6810;63.824;20.288;2022-10-16T14:33:22;99959.19;;;10.37;86.87
13476;BME280;6810;63.824;20.288;2022-10-16T14:39:03;99965.44;;;10.36;85.69
13476;BME280;6810;63.824;20.288;2022-10-16T14:41:51;99963.66;;;10.37;86.65
13476;BME280;6810;63.824;20.288;2022-10-16T14:44:39;99973.44;;;10.36;85.86
13476;BME280;6810;63.824;20.288;2022-10-16T14:47:26;99977.94;;;10.36;85.04
13476;BME280;6810;63.824;20.288;2022-10-16T14:50:13;99970.06;;;10.34;85.80
13476;BME280;6810;63.824;20.288;2022-10-16T14:53:00;99971.09;;;10.32;84.94
13476;BME280;6810;63.824;20.288;2022-10-16T14:55:47;99909.25;;;9.89;84.49
13476;BME280;6810;63.824;20.288;2022-10-16T14:58:34;99981.13;;;10.28;84.08
13476;BME280;6810;63.824;20.288;2022-10-16T15:01:22;99982.28;;;10.24;85.20
13476;BME280;6810;63.824;20.288;2022-10-16T15:04:11;99982.50;;;10.21;84.21
13476;BME280;6810;63.824;20.288;2022-10-16T15:06:59;99993.16;;;10.21;84.57
13476;BME280;6810;63.824;20.288;2022-10-16T15:09:49;99984.72;;;10.15;84.25
13476;BME280;6810;63.824;20.288;2022-10-16T15:12:36;100000.38;;;10.19;84.41
13476;BME280;6810;63.824;20.288;2022-10-16T15:15:28;100013.16;;;10.14;83.19
13476;BME280;6810;63.824;20.288;2022-10-16T15:18:17;100012.72;;;10.08;82.99
13476;BME280;6810;63.824;20.288;2022-10-16T15:21:05;100026.31;;;10.03;83.88
13476;BME280;6810;63.824;20.288;2022-10-16T15:23:52;100020.44;;;9.98;83.00
13476;BME280;6810;63.824;20.288;2022-10-16T15:26:45;100020.09;;;9.90;83.31
13476;BME280;6810;63.824;20.288;2022-10-16T15:29:34;100004.63;;;9.83;83.30
13476;BME280;6810;63.824;20.288;2022-10-16T15:32:21;100013.78;;;9.79;82.22
13476;BME280;6810;63.824;20.288;2022-10-16T15:35:09;100011.44;;;9.74;82.69
13476;BME280;6810;63.824;20.288;2022-10-16T15:37:56;100034.50;;;9.74;82.13
13476;BME280;6810;63.824;20.288;2022-10-16T15:40:45;100027.69;;;9.70;82.64
13476;BME280;6810;63.824;20.288;2022-10-16T15:43:32;100022.88;;;9.62;81.99
13476;BME280;6810;63.824;20.288;2022-10-16T15:46:21;100026.31;;;9.64;81.85
13476;BME280;6810;63.824;20.288;2022-10-16T15:49:09;99908.75;;;8.92;81.76
13476;BME280;6810;63.824;20.288;2022-10-16T15:51:56;100031.38;;;9.55;81.16
13476;BME280;6810;63.824;20.288;2022-10-16T15:54:43;100035.06;;;9.52;81.06
13476;BME280;6810;63.824;20.288;2022-10-16T15:57:30;100036.31;;;9.47;82.25
13476;BME280;6810;63.824;20.288;2022-10-16T16:00:19;100043.72;;;9.42;81.03
13476;BME280;6810;63.824;20.288;2022-10-16T16:03:09;100010.66;;;9.19;81.25
13476;BME280;6810;63.824;20.288;2022-10-16T16:05:58;100034.19;;;9.25;80.69
13476;BME280;6810;63.824;20.288;2022-10-16T16:08:45;100044.34;;;9.19;81.22
13476;BME280;6810;63.824;20.288;2022-10-16T16:11:32;100048.06;;;9.16;81.18
13476;BME280;6810;63.824;20.288;2022-10-16T16:14:19;100018.19;;;8.99;81.35
13476;BME280;6810;63.824;20.288;2022-10-16T16:17:06;100057.38;;;9.09;81.36
13476;BME280;6810;63.824;20.288;2022-10-16T16:19:53;100056.91;;;9.03;80.52
13476;BME280;6810;63.824;20.288;2022-10-16T16:22:40;100068.41;;;9.03;80.79
13476;BME280;6810;63.824;20.288;2022-10-16T16:25:27;100012.22;;;8.67;80.55
13476;BME280;6810;63.824;20.288;2022-10-16T16:28:14;100063.38;;;8.99;80.89
13476;BME280;6810;63.824;20.288;2022-10-16T16:31:01;100061.84;;;8.95;80.52
13476;BME280;6810;63.824;20.288;2022-10-16T16:33:29;100058.69;;;8.88;80.43
13476;BME280;6810;63.824;20.288;2022-10-16T16:36:16;100067.72;;;8.86;80.88
13476;BME280;6810;63.824;20.288;2022-10-16T16:39:03;99975.75;;;8.27;80.53
13476;BME280;6810;63.824;20.288;2022-10-16T16:41:50;99976.72;;;8.26;80.37
13476;BME280;6810;63.824;20.288;2022-10-16T16:44:37;99955.06;;;8.04;80.89
13476;BME280;6810;63.824;20.288;2022-10-16T16:47:24;100076.25;;;8.76;80.56
13476;BME280;6810;63.824;20.288;2022-10-16T16:50:11;100034.31;;;8.53;80.78
13476;BME280;6810;63.824;20.288;2022-10-16T16:52:58;100052.53;;;8.59;80.16
13476;BME280;6810;63.824;20.288;2022-10-16T16:55:45;100089.47;;;8.78;80.94
13476;BME280;6810;63.824;20.288;2022-10-16T16:58:32;100004.88;;;8.28;80.07
13476;BME280;6810;63.824;20.288;2022-10-16T17:01:20;100086.22;;;8.73;79.61
13476;BME280;6810;63.824;20.288;2022-10-16T17:04:08;100077.78;;;8.66;80.27
13476;BME280;6810;63.824;20.288;2022-10-16T17:06:55;99929.69;;;7.70;79.94
13476;BME280;6810;63.824;20.288;2022-10-16T17:09:46;100099.19;;;8.63;80.00
13476;BME280;6810;63.824;20.288;2022-10-16T17:12:33;100075.00;;;8.54;79.60
13476;BME280;6810;63.824;20.288;2022-10-16T17:15:25;100081.94;;;8.56;78.94
13476;BME280;6810;63.824;20.288;2022-10-16T17:18:12;100089.41;;;8.50;79.63
13476;BME280;6810;63.824;20.288;2022-10-16T17:21:03;100081.81;;;8.44;78.71
13476;BME280;6810;63.824;20.288;2022-10-16T17:23:51;100091.59;;;8.43;79.32
13476;BME280;6810;63.824;20.288;2022-10-16T17:26:39;100095.53;;;8.36;78.79
13476;BME280;6810;63.824;20.288;2022-10-16T17:29:26;100068.53;;;8.14;78.95
13476;BME280;6810;63.824;20.288;2022-10-16T17:31:55;100088.28;;;8.24;79.01
13476;BME280;6810;63.824;20.288;2022-10-16T17:34:22;100000.34;;;7.71;78.99
13476;BME280;6810;63.824;20.288;2022-10-16T17:37:09;100069.53;;;8.12;78.41
13476;BME280;6810;63.824;20.288;2022-10-16T17:39:56;100087.75;;;8.18;78.38
13476;BME280;6810;63.824;20.288;2022-10-16T17:42:43;100022.06;;;7.78;78.29
13476;BME280;6810;63.824;20.288;2022-10-16T17:45:31;100003.94;;;7.70;78.82
13476;BME280;6810;63.824;20.288;2022-10-16T17:48:18;100087.75;;;8.18;78.76
13476;BME280;6810;63.824;20.288;2022-10-16T17:51:06;100078.00;;;8.18;78.46
13476;BME280;6810;63.824;20.288;2022-10-16T17:53:57;100085.47;;;8.12;79.05
13476;BME280;6810;63.824;20.288;2022-10-16T17:56:44;100084.28;;;8.17;78.89
13476;BME280;6810;63.824;20.288;2022-10-16T17:59:31;100082.53;;;8.16;78.70
13476;BME280;6810;63.824;20.288;2022-10-16T18:02:18;100072.97;;;8.14;78.38
13476;BME280;6810;63.824;20.288;2022-10-16T18:05:05;100076.84;;;8.08;78.29
13476;BME280;6810;63.824;20.288;2022-10-16T18:07:52;100057.53;;;7.91;78.25
13476;BME280;6810;63.824;20.288;2022-10-16T18:10:46;100070.53;;;7.95;78.32
13476;BME280;6810;63.824;20.288;2022-10-16T18:13:33;100065.84;;;7.85;78.51
13476;BME280;6810;63.824;20.288;2022-10-16T18:16:21;100076.88;;;7.93;78.41
13476;BME280;6810;63.824;20.288;2022-10-16T18:19:10;100068.69;;;7.82;78.35
13476;BME280;6810;63.824;20.288;2022-10-16T18:21:57;100084.34;;;7.86;78.74
13476;BME280;6810;63.824;20.288;2022-10-16T18:24:44;99953.56;;;7.09;78.70
13476;BME280;6810;63.824;20.288;2022-10-16T18:27:32;100076.53;;;7.83;78.73
13476;BME280;6810;63.824;20.288;2022-10-16T18:30:19;100011.06;;;7.39;78.94
13476;BME280;6810;63.824;20.288;2022-10-16T18:33:07;100088.94;;;7.83;78.94
13476;BME280;6810;63.824;20.288;2022-10-16T18:35:53;100084.69;;;7.80;78.79
13476;BME280;6810;63.824;20.288;2022-10-16T18:38:41;100065.94;;;7.68;79.52
13476;BME280;6810;63.824;20.288;2022-10-16T18:41:28;100080.41;;;7.78;78.84
13476;BME280;6810;63.824;20.288;2022-10-16T18:44:15;100091.59;;;7.83;79.30
13476;BME280;6810;63.824;20.288;2022-10-16T18:47:02;100014.75;;;7.36;78.94
13476;BME280;6810;63.824;20.288;2022-10-16T18:49:49;100105.72;;;7.83;79.32
13476;BME280;6810;63.824;20.288;2022-10-16T18:52:37;100085.72;;;7.78;79.04
13476;BME280;6810;63.824;20.288;2022-10-16T18:55:24;100084.59;;;7.82;78.84
13476;BME280;6810;63.824;20.288;2022-10-16T18:58:11;100098.03;;;7.79;79.49
13476;BME280;6810;63.824;20.288;2022-10-16T19:01:03;100099.91;;;7.77;78.86
13476;BME280;6810;63.824;20.288;2022-10-16T19:04:02;100092.81;;;7.77;79.14
13476;BME280;6810;63.824;20.288;2022-10-16T19:06:52;100091.88;;;7.78;79.01
13476;BME280;6810;63.824;20.288;2022-10-16T19:09:39;100098.22;;;7.76;78.91
13476;BME280;6810;63.824;20.288;2022-10-16T19:12:26;99963.88;;;6.98;78.66
13476;BME280;6810;63.824;20.288;2022-10-16T19:15:13;100085.91;;;7.75;79.33
13476;BME280;6810;63.824;20.288;2022-10-16T19:18:00;100082.81;;;7.67;78.79
13476;BME280;6810;63.824;20.288;2022-10-16T19:20:53;100070.47;;;7.66;79.34
13476;BME280;6810;63.824;20.288;2022-10-16T19:23:40;100077.06;;;7.74;78.87
13476;BME280;6810;63.824;20.288;2022-10-16T19:26:29;100093.59;;;7.79;78.83
13476;BME280;6810;63.824;20.288;2022-10-16T19:29:18;100076.38;;;7.71;78.76
13476;BME280;6810;63.824;20.288;2022-10-16T19:32:05;100101.47;;;7.81;78.97
13476;BME280;6810;63.824;20.288;2022-10-16T19:34:52;100099.66;;;7.81;78.69
13476;BME280;6810;63.824;20.288;2022-10-16T19:37:39;100084.78;;;7.79;79.33
13476;BME280;6810;63.824;20.288;2022-10-16T19:40:27;100084.59;;;7.82;78.92
13476;BME280;6810;63.824;20.288;2022-10-16T19:43:13;100083.25;;;7.75;78.57
13476;BME280;6810;63.824;20.288;2022-10-16T19:46:10;100098.22;;;7.76;78.67
13476;BME280;6810;63.824;20.288;2022-10-16T19:49:01;100101.03;;;7.73;78.43
13476;BME280;6810;63.824;20.288;2022-10-16T19:51:48;100083.34;;;7.58;78.44
13476;BME280;6810;63.824;20.288;2022-10-16T19:54:36;100104.78;;;7.69;78.76
13476;BME280;6810;63.824;20.288;2022-10-16T19:57:23;100104.72;;;7.70;78.82
13476;BME280;6810;63.824;20.288;2022-10-16T20:00:11;100089.31;;;7.61;78.61
13476;BME280;6810;63.824;20.288;2022-10-16T20:02:58;100095.38;;;7.63;78.56
13476;BME280;6810;63.824;20.288;2022-10-16T20:05:55;100104.38;;;7.61;78.88
13476;BME280;6810;63.824;20.288;2022-10-16T20:08:44;100094.69;;;7.60;78.94
13476;BME280;6810;63.824;20.288;2022-10-16T20:11:33;100089.38;;;7.60;78.84
13476;BME280;6810;63.824;20.288;2022-10-16T20:14:21;100082.22;;;7.62;78.86
13476;BME280;6810;63.824;20.288;2022-10-16T20:17:08;100083.00;;;7.64;78.93
13476;BME280;6810;63.824;20.288;2022-10-16T20:19:55;100087.34;;;7.65;78.76
13476;BME280;6810;63.824;20.288;2022-10-16T20:22:42;100083.81;;;7.64;78.74
13476;BME280;6810;63.824;20.288;2022-10-16T20:25:35;100079.38;;;7.65;78.63
13476;BME280;6810;63.824;20.288;2022-10-16T20:28:26;100080.34;;;7.64;78.62
13476;BME280;6810;63.824;20.288;2022-10-16T20:31:18;100082.81;;;7.67;78.73
13476;BME280;6810;63.824;20.288;2022-10-16T20:34:11;100072.28;;;7.65;78.42
13476;BME280;6810;63.824;20.288;2022-10-16T20:36:58;99991.34;;;7.13;78.72
13476;BME280;6810;63.824;20.288;2022-10-16T20:39:46;100080.16;;;7.67;78.57
13476;BME280;6810;63.824;20.288;2022-10-16T20:42:33;100076.66;;;7.66;78.46
13476;BME280;6810;63.824;20.288;2022-10-16T20:45:20;100098.72;;;7.67;78.16
13476;BME280;6810;63.824;20.288;2022-10-16T20:48:08;100075.88;;;7.64;78.04
13476;BME280;6810;63.824;20.288;2022-10-16T20:50:55;100093.59;;;7.64;78.73
13476;BME280;6810;63.824;20.288;2022-10-16T20:53:43;100057.78;;;7.41;78.26
13476;BME280;6810;63.824;20.288;2022-10-16T20:56:33;100025.34;;;7.21;78.62
13476;BME280;6810;63.824;20.288;2022-10-16T20:59:20;100097.16;;;7.63;78.50
13476;BME280;6810;63.824;20.288;2022-10-16T21:02:08;100113.09;;;7.63;78.56
13476;BME280;6810;63.824;20.288;2022-10-16T21:04:55;100120.28;;;7.61;77.80
13476;BME280;6810;63.824;20.288;2022-10-16T21:07:42;100112.69;;;7.55;78.02
13476;BME280;6810;63.824;20.288;2022-10-16T21:10:30;100125.59;;;7.61;78.22
13476;BME280;6810;63.824;20.288;2022-10-16T21:13:16;100121.22;;;7.60;78.61
13476;BME280;6810;63.824;20.288;2022-10-16T21:16:04;100117.72;;;7.59;78.81
13476;BME280;6810;63.824;20.288;2022-10-16T21:18:51;100115.69;;;7.49;78.62
13476;BME280;6810;63.824;20.288;2022-10-16T21:21:38;100135.41;;;7.59;78.35
13476;BME280;6810;63.824;20.288;2022-10-16T21:24:25;100129.25;;;7.58;78.38
13476;BME280;6810;63.824;20.288;2022-10-16T21:27:12;100111.53;;;7.43;78.80
13476;BME280;6810;63.824;20.288;2022-10-16T21:29:59;100004.56;;;6.82;78.84
13476;BME280;6810;63.824;20.288;2022-10-16T21:32:46;100006.28;;;6.83;78.45
13476;BME280;6810;63.824;20.288;2022-10-16T21:35:33;100129.34;;;7.57;78.50
13476;BME280;6810;63.824;20.288;2022-10-16T21:38:21;100126.84;;;7.54;78.58
13476;BME280;6810;63.824;20.288;2022-10-16T21:41:20;100005.41;;;6.82;78.36
13476;BME280;6810;63.824;20.288;2022-10-16T21:44:07;100109.75;;;7.44;78.10
13476;BME280;6810;63.824;20.288;2022-10-16T21:46:54;100121.72;;;7.51;78.34
13476;BME280;6810;63.824;20.288;2022-10-16T21:49:41;100115.84;;;7.46;78.59
13476;BME280;6810;63.824;20.288;2022-10-16T21:52:28;100125.50;;;7.47;77.84
13476;BME280;6810;63.824;20.288;2022-10-16T21:55:15;100057.22;;;7.03;78.58
13476;BME280;6810;63.824;20.288;2022-10-16T21:58:02;100132.66;;;7.45;78.17
13476;BME280;6810;63.824;20.288;2022-10-16T22:00:49;100118.31;;;7.33;78.30
13476;BME280;6810;63.824;20.288;2022-10-16T22:03:36;100123.69;;;7.32;78.33
13476;BME280;6810;63.824;20.288;2022-10-16T22:06:25;100128.47;;;7.25;78.17
13476;BME280;6810;63.824;20.288;2022-10-16T22:09:12;100138.47;;;7.36;78.19
13476;BME280;6810;63.824;20.288;2022-10-16T22:11:59;100070.25;;;6.91;78.29
13476;BME280;6810;63.824;20.288;2022-10-16T22:14:46;100025.78;;;6.65;78.04
13476;BME280;6810;63.824;20.288;2022-10-16T22:17:33;100143.25;;;7.29;78.20
13476;BME280;6810;63.824;20.288;2022-10-16T22:20:20;100155.41;;;7.33;78.18
